Terminal Aerodrome Forecast
Issued by NWS

Home | Current Version | Previous Version | Text Only | Print | Product List | Glossary On
Versions: 1 2 3 4 5 6 7 8 9 10 11 12 13 14 15 16
000
FTUS45 KABQ 040500
TAFSAF
TAF
KSAF 040527Z 0406/0506 01006KT P6SM VCSH BKN090
     FM041000 04005KT P6SM BKN080
     FM041800 20008KT P6SM VCSH BKN060 PROB30 0419/0423 -TSRA
      BKN050CB
     FM042300 12015KT P6SM -SHRA OVC040
      TEMPO 0423/0503 TSRA OVC025CB=

USA.gov is the U.S. government's official web portal to all federal, state and local government web resources and services.